Time;durP1;ratioP1;P1;durP2;ratioP2;P2;SDS_P1;SDS_P2;PMS_P1;PMS_P2;Temp;Humidity;BMP_temperature;BMP_pressure;BME280_temperature;BME280_humidity;BME280_pressure;Samples;Min_cycle;Max_cycle;Signal;HPM_P1;HPM_P2
2023/02/02 00:00:41;;;;;;;;;;;4.90;88.50;;;;;;4997888;28;19982;-85
2023/02/02 00:03:07;;;;;;;;;;;4.90;87.90;;;;;;4966633;28;19957;-85
2023/02/02 00:05:33;;;;;;;;;;;4.90;88.10;;;;;;4978372;28;19918;-86
2023/02/02 00:07:58;;;;;;;;;;;4.90;87.70;;;;;;4979903;28;19929;-88
2023/02/02 00:10:24;;;;;;;;;;;4.90;87.70;;;;;;4991128;28;19968;-86
2023/02/02 00:12:49;;;;;;;;;;;5.00;87.60;;;;;;4985365;28;19918;-86
2023/02/02 00:15:15;;;;;;;;;;;4.90;88.10;;;;;;4984567;28;20369;-86
2023/02/02 00:17:40;;;;;;;;;;;4.90;88.40;;;;;;4985305;28;19982;-86
2023/02/02 00:20:06;;;;;;;;;;;4.90;88.80;;;;;;4984214;28;19985;-86
2023/02/02 00:22:32;;;;;;;;;;;4.90;88.60;;;;;;4984394;28;19960;-85
2023/02/02 00:24:58;;;;;;;;;;;4.80;88.90;;;;;;4988312;28;19930;-86
2023/02/02 00:27:23;;;;;;;;;;;4.80;89.40;;;;;;4984103;28;19929;-85
2023/02/02 00:29:52;;;;;;;;;;;4.80;89.70;;;;;;4979697;28;20323;-84
2023/02/02 00:32:18;;;;;;;;;;;4.80;90.00;;;;;;4989044;28;19921;-86
2023/02/02 00:34:43;;;;;;;;;;;4.70;90.20;;;;;;5001320;28;19898;-86
2023/02/02 00:37:09;;;;;;;;;;;4.70;90.50;;;;;;4986901;28;19946;-87
2023/02/02 00:39:35;;;;;;;;;;;4.60;90.60;;;;;;4986806;28;20279;-86
2023/02/02 00:42:00;;;;;;;;;;;4.60;90.50;;;;;;4964039;28;19910;-86
2023/02/02 00:47:10;;;;;;;;;;;4.70;90.60;;;;;;4981257;28;20013;-85
2023/02/02 00:49:35;;;;;;;;;;;4.60;90.80;;;;;;4982935;28;19914;-84
2023/02/02 00:52:01;;;;;;;;;;;4.60;91.10;;;;;;4984108;28;19917;-82
2023/02/02 00:54:30;;;;;;;;;;;4.60;91.10;;;;;;4983237;28;19938;-85
2023/02/02 00:56:56;;;;;;;;;;;4.60;91.10;;;;;;4983205;28;19910;-84
2023/02/02 00:59:21;;;;;;;;;;;4.50;91.20;;;;;;4987718;28;19942;-85
2023/02/02 01:01:47;;;;;;;;;;;4.50;91.50;;;;;;4968111;29;19921;-84
2023/02/02 01:04:12;;;;;;;;;;;4.50;91.70;;;;;;4968300;29;19915;-84
2023/02/02 01:06:38;;;;;;;;;;;4.50;91.80;;;;;;4975913;28;20001;-85
2023/02/02 01:09:03;;;;;;;;;;;4.50;92.30;;;;;;4994621;28;19910;-85
2023/02/02 01:11:29;;;;;;;;;;;4.40;92.70;;;;;;4996557;28;19965;-85
2023/02/02 01:13:55;;;;;;;;;;;4.30;92.90;;;;;;4997604;28;19915;-88
2023/02/02 01:16:24;;;;;;;;;;;4.30;93.20;;;;;;5000121;28;19918;-87
2023/02/02 01:18:50;;;;;;;;;;;4.20;93.70;;;;;;4983787;28;19918;-86
2023/02/02 01:21:16;;;;;;;;;;;4.20;93.90;;;;;;4972027;28;19953;-86
2023/02/02 01:23:41;;;;;;;;;;;4.20;93.70;;;;;;4991272;28;19917;-85
2023/02/02 01:26:12;;;;;;;;;;;4.20;94.00;;;;;;4990834;28;19910;-85
2023/02/02 01:28:38;;;;;;;;;;;4.20;94.10;;;;;;4975194;28;19918;-84
2023/02/02 01:31:07;;;;;;;;;;;4.20;93.90;;;;;;4974543;29;20009;-84
2023/02/02 01:33:33;;;;;;;;;;;4.20;94.20;;;;;;4974791;28;19906;-87
2023/02/02 01:36:01;;;;;;;;;;;4.20;94.30;;;;;;5002656;28;19918;-85
2023/02/02 01:38:27;;;;;;;;;;;4.20;94.30;;;;;;5015838;28;19921;-84
2023/02/02 01:40:54;;;;;;;;;;;4.20;94.20;;;;;;4999707;28;19910;-85
2023/02/02 01:43:24;;;;;;;;;;;4.20;94.10;;;;;;5018099;28;19921;-86
2023/02/02 01:45:50;;;;;;;;;;;4.20;94.00;;;;;;5017087;28;20359;-85
2023/02/02 01:48:17;;;;;;;;;;;4.30;93.90;;;;;;4998873;28;19941;-86
2023/02/02 01:50:43;;;;;;;;;;;4.30;93.40;;;;;;5015854;28;19916;-84
2023/02/02 01:53:09;;;;;;;;;;;4.40;93.60;;;;;;5001700;28;19941;-83
2023/02/02 01:55:36;;;;;;;;;;;4.40;93.30;;;;;;5007684;28;19911;-86
2023/02/02 01:58:07;;;;;;;;;;;4.40;93.20;;;;;;4979185;28;19945;-85
2023/02/02 02:00:33;;;;;;;;;;;4.40;93.20;;;;;;4994333;28;19957;-85
2023/02/02 02:03:05;;;;;;;;;;;4.40;93.10;;;;;;4994628;28;20013;-84
2023/02/02 02:05:33;;;;;;;;;;;4.40;93.10;;;;;;4994950;28;19914;-85
2023/02/02 02:08:05;;;;;;;;;;;4.40;92.90;;;;;;4995236;28;20134;-85
2023/02/02 02:10:31;;;;;;;;;;;4.50;92.90;;;;;;4975579;28;19922;-85
2023/02/02 02:12:57;;;;;;;;;;;4.50;92.60;;;;;;4974824;28;20048;-86
2023/02/02 02:18:16;;;;;;;;;;;4.60;92.50;;;;;;4981566;28;19981;-85
2023/02/02 02:26:53;;;;;;;;;;;4.60;92.20;;;;;;4993866;28;19978;-85
2023/02/02 02:29:31;;;;;;;;;;;4.50;92.40;;;;;;4994830;28;19956;-85
2023/02/02 02:32:12;;;;;;;;;;;4.50;92.50;;;;;;4994252;28;19977;-85
2023/02/02 02:37:35;;;;;;;;;;;4.60;92.20;;;;;;5283619;23;19926;-84
2023/02/02 02:40:30;;;;;;;;;;;4.50;92.20;;;;;;4992016;28;19914;-86
2023/02/02 02:43:01;;;;;;;;;;;4.60;92.20;;;;;;4971925;28;19911;-87
2023/02/02 02:45:27;;;;;;;;;;;4.60;92.30;;;;;;4970427;28;19910;-85
2023/02/02 02:47:56;;;;;;;;;;;4.50;92.30;;;;;;4987120;28;19925;-85
2023/02/02 02:50:25;;;;;;;;;;;4.50;92.30;;;;;;4966735;28;19917;-85
2023/02/02 02:53:17;;;;;;;;;;;4.60;92.10;;;;;;4981720;28;19917;-85
2023/02/02 02:56:18;;;;;;;;;;;4.60;92.00;;;;;;4962127;28;19938;-85
2023/02/02 02:58:51;;;;;;;;;;;4.60;92.00;;;;;;4908157;29;19919;-85
2023/02/02 03:01:28;;;;;;;;;;;4.60;92.10;;;;;;4959411;28;19918;-84
2023/02/02 03:04:21;;;;;;;;;;;4.60;92.00;;;;;;4981776;28;19941;-85
2023/02/02 03:07:12;;;;;;;;;;;4.60;92.00;;;;;;4980010;28;19989;-85
2023/02/02 03:09:41;;;;;;;;;;;4.70;91.80;;;;;;4980536;28;20342;-86
2023/02/02 03:12:10;;;;;;;;;;;4.70;91.80;;;;;;4961977;28;19910;-84
2023/02/02 03:14:38;;;;;;;;;;;4.70;91.90;;;;;;4980747;28;20339;-84
2023/02/02 03:17:07;;;;;;;;;;;4.60;92.00;;;;;;4985334;28;19921;-86
2023/02/02 03:19:32;;;;;;;;;;;4.70;91.80;;;;;;4965524;28;20375;-86
2023/02/02 03:21:58;;;;;;;;;;;4.70;91.70;;;;;;4977937;28;19921;-86
2023/02/02 03:24:24;;;;;;;;;;;4.70;92.60;;;;;;4977017;28;20590;-86
2023/02/02 03:26:50;;;;;;;;;;;4.70;93.60;;;;;;4977723;28;20264;-86
2023/02/02 03:29:16;;;;;;;;;;;4.50;94.10;;;;;;4959695;28;19916;-86
2023/02/02 03:31:41;;;;;;;;;;;4.50;94.30;;;;;;4992621;28;20345;-86
2023/02/02 03:34:07;;;;;;;;;;;4.50;94.20;;;;;;4996314;28;20014;-87
2023/02/02 03:36:32;;;;;;;;;;;4.40;94.10;;;;;;4994964;28;19910;-85
2023/02/02 03:38:58;;;;;;;;;;;4.30;94.90;;;;;;5002240;28;19949;-86
2023/02/02 03:41:23;;;;;;;;;;;4.30;95.20;;;;;;4979142;28;19910;-86
2023/02/02 03:43:49;;;;;;;;;;;4.20;95.60;;;;;;4996759;28;19921;-86
2023/02/02 03:46:14;;;;;;;;;;;4.20;96.10;;;;;;4990063;28;19977;-86
2023/02/02 03:48:40;;;;;;;;;;;4.10;96.30;;;;;;4995472;28;19918;-86
2023/02/02 03:51:10;;;;;;;;;;;4.10;96.50;;;;;;4996627;28;19914;-86
2023/02/02 03:53:36;;;;;;;;;;;4.10;96.60;;;;;;4983085;28;19909;-86
2023/02/02 03:56:02;;;;;;;;;;;4.00;96.80;;;;;;4975182;28;19989;-86
2023/02/02 03:58:28;;;;;;;;;;;4.00;96.80;;;;;;4998948;28;19913;-86
2023/02/02 04:00:54;;;;;;;;;;;4.10;96.30;;;;;;5000242;28;20382;-85
2023/02/02 04:03:20;;;;;;;;;;;4.20;95.90;;;;;;4979723;28;19910;-86
2023/02/02 04:05:49;;;;;;;;;;;4.30;95.80;;;;;;4985518;28;19911;-86
2023/02/02 04:08:14;;;;;;;;;;;4.30;95.60;;;;;;4959141;28;19921;-86
2023/02/02 04:10:41;;;;;;;;;;;4.30;95.60;;;;;;4977266;28;19910;-87
2023/02/02 04:13:06;;;;;;;;;;;4.30;95.70;;;;;;4976905;28;19910;-86
2023/02/02 04:15:32;;;;;;;;;;;4.40;95.60;;;;;;4976204;28;19910;-88
2023/02/02 04:17:58;;;;;;;;;;;4.40;95.30;;;;;;4976956;28;19997;-84
2023/02/02 04:20:23;;;;;;;;;;;4.40;95.40;;;;;;4976962;28;20372;-86
2023/02/02 04:22:49;;;;;;;;;;;4.40;95.00;;;;;;4959553;28;20004;-85
2023/02/02 04:25:17;;;;;;;;;;;4.40;95.40;;;;;;4967765;28;19928;-86
2023/02/02 04:27:43;;;;;;;;;;;4.40;95.60;;;;;;4961780;28;19921;-86
2023/02/02 04:30:09;;;;;;;;;;;4.40;95.20;;;;;;4977804;28;19914;-86
2023/02/02 04:32:34;;;;;;;;;;;4.40;95.30;;;;;;4973447;28;19965;-87
2023/02/02 04:35:00;;;;;;;;;;;4.40;95.20;;;;;;4979869;28;20313;-86
2023/02/02 04:37:25;;;;;;;;;;;4.50;95.30;;;;;;4979875;28;19970;-86
2023/02/02 04:39:52;;;;;;;;;;;4.50;95.30;;;;;;4962844;28;20005;-87
2023/02/02 04:42:26;;;;;;;;;;;4.50;95.40;;;;;;4963423;28;19911;-86
2023/02/02 04:44:52;;;;;;;;;;;4.50;95.80;;;;;;4962997;28;19917;-83
2023/02/02 04:47:17;;;;;;;;;;;4.40;96.10;;;;;;4978842;28;19914;-83
2023/02/02 04:49:43;;;;;;;;;;;4.30;96.30;;;;;;4987951;28;19920;-83
2023/02/02 04:52:11;;;;;;;;;;;4.30;96.40;;;;;;4999218;28;20334;-83
2023/02/02 04:54:37;;;;;;;;;;;4.30;95.90;;;;;;4998001;28;19921;-83
2023/02/02 04:57:02;;;;;;;;;;;4.40;95.80;;;;;;4967115;28;19911;-83
2023/02/02 04:59:28;;;;;;;;;;;4.50;95.30;;;;;;4997687;28;19906;-84
2023/02/02 05:01:57;;;;;;;;;;;4.50;95.00;;;;;;4988646;28;19914;-84
2023/02/02 05:04:23;;;;;;;;;;;4.60;94.80;;;;;;5001770;28;19910;-84
2023/02/02 05:06:48;;;;;;;;;;;4.60;94.80;;;;;;4986392;28;19914;-84
2023/02/02 05:09:14;;;;;;;;;;;4.60;94.60;;;;;;4982620;28;19961;-84
2023/02/02 05:11:43;;;;;;;;;;;4.60;94.60;;;;;;4982938;28;20394;-85
2023/02/02 05:14:09;;;;;;;;;;;4.60;94.50;;;;;;4981284;28;20263;-85
2023/02/02 05:16:38;;;;;;;;;;;4.60;94.60;;;;;;4981093;28;19910;-85
2023/02/02 05:19:04;;;;;;;;;;;4.70;94.50;;;;;;4982804;28;19910;-85
2023/02/02 05:21:29;;;;;;;;;;;4.60;94.80;;;;;;4994572;28;20004;-84
2023/02/02 05:23:55;;;;;;;;;;;4.70;94.70;;;;;;5007008;28;19948;-84
2023/02/02 05:26:21;;;;;;;;;;;4.70;94.60;;;;;;5015439;28;19910;-84
2023/02/02 05:28:47;;;;;;;;;;;4.70;94.70;;;;;;5011311;28;20612;-84
2023/02/02 05:31:13;;;;;;;;;;;4.70;95.00;;;;;;5007033;28;19917;-84
2023/02/02 05:33:38;;;;;;;;;;;4.70;95.00;;;;;;4986525;28;19914;-84
2023/02/02 05:36:04;;;;;;;;;;;4.60;95.20;;;;;;4990042;28;19914;-84
2023/02/02 05:38:30;;;;;;;;;;;4.70;95.20;;;;;;4981139;28;19941;-84
2023/02/02 05:40:56;;;;;;;;;;;4.60;95.20;;;;;;4967045;28;19914;-84
2023/02/02 05:43:25;;;;;;;;;;;4.60;95.70;;;;;;4984542;28;19952;-84
2023/02/02 05:45:52;;;;;;;;;;;4.50;95.70;;;;;;4983652;28;19914;-85
2023/02/02 05:48:19;;;;;;;;;;;4.50;95.50;;;;;;4983046;28;19949;-85
2023/02/02 05:50:56;;;;;;;;;;;4.50;95.70;;;;;;4981831;28;20042;-85
2023/02/02 05:53:22;;;;;;;;;;;4.50;95.70;;;;;;4999843;28;19938;-83
2023/02/02 05:55:48;;;;;;;;;;;4.50;95.80;;;;;;4971209;28;19910;-83
2023/02/02 05:58:13;;;;;;;;;;;4.50;96.20;;;;;;4943367;29;19946;-83
2023/02/02 06:00:39;;;;;;;;;;;4.40;96.70;;;;;;4969801;28;19925;-81
2023/02/02 06:03:07;;;;;;;;;;;4.40;96.60;;;;;;4985370;28;20252;-84
2023/02/02 06:05:33;;;;;;;;;;;4.50;96.30;;;;;;4983070;28;19921;-87
2023/02/02 06:08:24;;;;;;;;;;;4.40;96.80;;;;;;4984176;28;20287;-84
2023/02/02 06:14:21;;;;;;;;;;;4.50;96.00;;;;;;4979843;28;19964;-86
2023/02/02 06:23:09;;;;;;;;;;;4.70;96.00;;;;;;4945437;28;19960;-85
2023/02/02 06:26:07;;;;;;;;;;;4.60;96.00;;;;;;4984068;28;19917;-85
2023/02/02 06:28:40;;;;;;;;;;;4.50;96.00;;;;;;4983573;28;19925;-86
2023/02/02 06:43:21;;;;;;;;;;;4.60;95.50;;;;;;4967042;29;19921;-85
2023/02/02 06:45:46;;;;;;;;;;;4.70;95.20;;;;;;4974427;28;19930;-83
2023/02/02 06:48:39;;;;;;;;;;;4.80;95.00;;;;;;4982496;28;19926;-86
2023/02/02 06:51:35;;;;;;;;;;;4.80;94.90;;;;;;4963207;28;19961;-85
2023/02/02 06:54:23;;;;;;;;;;;4.80;94.70;;;;;;4962669;28;19910;-85
2023/02/02 06:56:52;;;;;;;;;;;4.80;95.00;;;;;;4994405;28;19961;-86
2023/02/02 06:59:19;;;;;;;;;;;4.80;94.90;;;;;;5008361;28;19922;-86
2023/02/02 07:01:50;;;;;;;;;;;4.90;94.60;;;;;;4968114;28;19903;-86
2023/02/02 07:04:33;;;;;;;;;;;4.90;94.60;;;;;;4992167;28;19921;-87
2023/02/02 07:10:35;;;;;;;;;;;4.90;94.50;;;;;;4996564;28;19916;-85
2023/02/02 07:16:34;;;;;;;;;;;4.90;94.80;;;;;;4946300;29;19935;-86
2023/02/02 07:19:00;;;;;;;;;;;4.80;95.10;;;;;;4956970;29;19918;-86
2023/02/02 07:21:28;;;;;;;;;;;4.90;94.60;;;;;;4975749;28;19974;-84
2023/02/02 07:23:53;;;;;;;;;;;5.00;94.70;;;;;;4987803;28;19910;-84
2023/02/02 07:26:19;;;;;;;;;;;5.00;94.60;;;;;;4978338;28;19914;-86
2023/02/02 07:28:45;;;;;;;;;;;5.00;94.50;;;;;;4970273;28;19941;-85
2023/02/02 07:31:11;;;;;;;;;;;5.00;94.40;;;;;;4969139;28;20013;-85
2023/02/02 07:33:39;;;;;;;;;;;5.10;94.30;;;;;;4969336;28;20422;-86
2023/02/02 07:36:04;;;;;;;;;;;5.10;94.10;;;;;;4970752;28;19914;-85
2023/02/02 07:38:30;;;;;;;;;;;5.10;94.30;;;;;;4987890;28;20084;-85
2023/02/02 07:40:59;;;;;;;;;;;5.00;94.60;;;;;;4990661;28;19934;-85
2023/02/02 07:43:24;;;;;;;;;;;5.10;94.30;;;;;;4973326;28;19914;-86
2023/02/02 07:45:50;;;;;;;;;;;5.10;94.30;;;;;;4986629;28;19914;-86
2023/02/02 07:48:15;;;;;;;;;;;5.10;94.50;;;;;;4968345;28;20323;-85
2023/02/02 07:50:41;;;;;;;;;;;5.10;94.60;;;;;;4991471;28;20314;-84
2023/02/02 07:53:06;;;;;;;;;;;5.10;94.90;;;;;;4991733;28;20442;-85
2023/02/02 07:55:32;;;;;;;;;;;5.10;95.40;;;;;;4974445;28;20506;-86
2023/02/02 07:57:57;;;;;;;;;;;5.10;95.50;;;;;;5000060;28;19944;-86
2023/02/02 08:00:24;;;;;;;;;;;5.10;95.70;;;;;;4980034;28;19910;-84
2023/02/02 08:02:49;;;;;;;;;;;5.00;96.30;;;;;;4998778;28;19929;-86
2023/02/02 08:05:15;;;;;;;;;;;5.00;96.30;;;;;;4979238;28;19985;-86
2023/02/02 08:07:40;;;;;;;;;;;5.00;96.20;;;;;;4994069;28;19985;-87
2023/02/02 08:10:15;;;;;;;;;;;5.00;96.00;;;;;;4991465;28;19910;-89
2023/02/02 08:12:41;;;;;;;;;;;5.00;96.10;;;;;;5006195;28;19917;-86
2023/02/02 08:15:07;;;;;;;;;;;5.00;96.40;;;;;;5002110;28;19914;-87
2023/02/02 08:17:32;;;;;;;;;;;5.00;96.10;;;;;;5001870;28;19914;-85
2023/02/02 08:19:58;;;;;;;;;;;5.00;96.00;;;;;;4989515;28;20441;-85
2023/02/02 08:22:24;;;;;;;;;;;5.10;96.10;;;;;;4980712;28;19949;-86
2023/02/02 08:24:49;;;;;;;;;;;5.10;95.90;;;;;;5004943;28;19915;-86
2023/02/02 08:27:15;;;;;;;;;;;5.00;96.50;;;;;;4984119;28;20216;-86
2023/02/02 08:29:41;;;;;;;;;;;5.00;96.40;;;;;;4967629;28;19942;-87
2023/02/02 08:32:07;;;;;;;;;;;5.00;96.20;;;;;;4968379;28;19914;-86
2023/02/02 08:34:35;;;;;;;;;;;5.10;96.10;;;;;;4985466;28;19942;-86
2023/02/02 08:37:01;;;;;;;;;;;5.10;96.10;;;;;;4984884;28;19914;-87
2023/02/02 08:39:27;;;;;;;;;;;5.10;96.00;;;;;;4983495;28;19918;-87
2023/02/02 08:41:55;;;;;;;;;;;5.10;96.20;;;;;;4983353;28;19916;-87
2023/02/02 08:44:21;;;;;;;;;;;5.00;96.40;;;;;;4990935;28;19941;-87
2023/02/02 08:46:46;;;;;;;;;;;5.00;96.30;;;;;;4973757;28;19947;-87
2023/02/02 08:49:12;;;;;;;;;;;5.00;96.30;;;;;;4991723;28;19910;-87
2023/02/02 08:51:38;;;;;;;;;;;5.00;96.80;;;;;;4971636;28;19910;-85
2023/02/02 08:54:03;;;;;;;;;;;5.00;96.70;;;;;;4986401;28;19910;-86
2023/02/02 08:56:29;;;;;;;;;;;5.10;96.90;;;;;;4983035;28;19921;-86
2023/02/02 08:58:57;;;;;;;;;;;5.00;97.00;;;;;;4981903;28;19910;-86
2023/02/02 09:01:23;;;;;;;;;;;5.00;97.60;;;;;;4986023;28;19973;-87
2023/02/02 09:03:56;;;;;;;;;;;4.90;97.80;;;;;;4997694;28;19910;-87
2023/02/02 09:06:26;;;;;;;;;;;4.90;97.70;;;;;;4985742;28;20397;-86
2023/02/02 09:08:51;;;;;;;;;;;4.90;97.80;;;;;;4978673;28;19922;-86
2023/02/02 09:11:18;;;;;;;;;;;4.90;98.30;;;;;;4961036;28;20731;-86
2023/02/02 09:13:44;;;;;;;;;;;4.90;98.50;;;;;;4960809;28;19965;-86
2023/02/02 09:16:11;;;;;;;;;;;4.90;98.70;;;;;;4961972;28;19917;-86
2023/02/02 09:18:37;;;;;;;;;;;4.90;98.30;;;;;;4981825;28;19914;-86
2023/02/02 09:21:04;;;;;;;;;;;5.00;97.70;;;;;;4966452;28;19917;-86
2023/02/02 09:23:30;;;;;;;;;;;5.00;97.70;;;;;;4966053;28;19910;-87
2023/02/02 09:25:56;;;;;;;;;;;5.00;97.70;;;;;;4980461;28;19914;-86
2023/02/02 09:28:21;;;;;;;;;;;5.10;97.70;;;;;;4974247;28;19917;-87
2023/02/02 09:30:47;;;;;;;;;;;5.20;97.50;;;;;;4964740;28;19914;-85
2023/02/02 09:33:13;;;;;;;;;;;5.20;97.20;;;;;;5007401;28;19910;-87
2023/02/02 09:35:44;;;;;;;;;;;5.20;97.00;;;;;;4972446;28;19948;-85
2023/02/02 09:38:10;;;;;;;;;;;5.20;97.20;;;;;;4967592;28;19918;-86
2023/02/02 09:40:36;;;;;;;;;;;5.20;97.20;;;;;;4986752;28;19960;-86
2023/02/02 09:43:24;;;;;;;;;;;5.20;97.60;;;;;;4985837;28;19918;-85
2023/02/02 09:46:14;;;;;;;;;;;5.30;97.20;;;;;;4967627;28;20303;-87
2023/02/02 09:49:16;;;;;;;;;;;5.40;97.10;;;;;;5006379;28;21377;-87
2023/02/02 09:51:47;;;;;;;;;;;5.50;97.10;;;;;;4906358;29;20421;-83
2023/02/02 09:54:21;;;;;;;;;;;5.60;96.50;;;;;;4975449;28;19914;-84
2023/02/02 09:56:50;;;;;;;;;;;5.60;96.60;;;;;;4976491;28;19914;-86
2023/02/02 09:59:28;;;;;;;;;;;5.50;96.40;;;;;;4991630;28;19938;-86
2023/02/02 10:01:59;;;;;;;;;;;5.40;97.00;;;;;;4989558;28;19911;-84
2023/02/02 10:04:34;;;;;;;;;;;5.30;97.30;;;;;;4988824;28;19981;-86
2023/02/02 10:07:03;;;;;;;;;;;5.30;97.50;;;;;;4989948;28;20352;-85
2023/02/02 10:09:58;;;;;;;;;;;5.40;97.10;;;;;;4995558;28;19910;-88
2023/02/02 10:12:24;;;;;;;;;;;5.40;97.80;;;;;;4905140;28;19979;-86
2023/02/02 10:14:51;;;;;;;;;;;5.60;97.40;;;;;;4985556;28;19906;-85
2023/02/02 10:17:19;;;;;;;;;;;5.60;96.80;;;;;;4991562;28;20002;-85
2023/02/02 10:19:45;;;;;;;;;;;5.60;96.50;;;;;;5003919;28;19910;-85
2023/02/02 10:22:17;;;;;;;;;;;5.70;96.60;;;;;;5003394;28;19916;-85
2023/02/02 10:24:43;;;;;;;;;;;5.80;96.30;;;;;;4984725;28;19924;-84
2023/02/02 10:27:12;;;;;;;;;;;5.80;95.90;;;;;;5003319;28;19914;-85
2023/02/02 10:30:07;;;;;;;;;;;5.90;95.90;;;;;;4982356;28;20010;-85
2023/02/02 10:32:35;;;;;;;;;;;5.80;96.00;;;;;;4968278;29;19926;-85
2023/02/02 10:35:01;;;;;;;;;;;5.80;95.90;;;;;;5009866;28;20358;-86
2023/02/02 10:37:32;;;;;;;;;;;5.80;95.80;;;;;;4982520;28;20102;-84
2023/02/02 10:39:58;;;;;;;;;;;5.80;95.60;;;;;;4974599;28;19949;-85
2023/02/02 10:42:37;;;;;;;;;;;5.80;95.40;;;;;;4982298;28;20371;-84
2023/02/02 10:45:21;;;;;;;;;;;5.80;95.40;;;;;;4980117;28;19910;-83
2023/02/02 10:47:46;;;;;;;;;;;5.80;95.50;;;;;;4964606;28;20399;-83
2023/02/02 10:50:12;;;;;;;;;;;5.80;95.30;;;;;;4995819;28;19920;-84
2023/02/02 10:52:58;;;;;;;;;;;5.80;95.30;;;;;;4965142;28;19921;-84
2023/02/02 10:55:27;;;;;;;;;;;5.80;95.10;;;;;;4983315;28;19910;-85
2023/02/02 10:58:10;;;;;;;;;;;5.80;95.50;;;;;;4984566;28;19910;-85
2023/02/02 11:00:50;;;;;;;;;;;5.80;95.30;;;;;;4976654;28;19942;-85
2023/02/02 11:03:18;;;;;;;;;;;5.80;95.30;;;;;;4993952;28;20335;-85
2023/02/02 11:08:32;;;;;;;;;;;6.00;95.50;;;;;;4983204;28;20371;-85
2023/02/02 11:11:08;;;;;;;;;;;6.10;95.60;;;;;;4983097;28;19973;-84
2023/02/02 11:13:38;;;;;;;;;;;6.20;95.30;;;;;;4982965;28;19910;-84
2023/02/02 11:16:23;;;;;;;;;;;6.10;95.20;;;;;;4965191;28;20383;-84
2023/02/02 11:18:48;;;;;;;;;;;6.10;95.10;;;;;;4983251;28;19953;-85
2023/02/02 11:21:21;;;;;;;;;;;6.10;95.50;;;;;;4983694;28;19914;-85
2023/02/02 11:23:54;;;;;;;;;;;6.10;95.60;;;;;;4973568;28;19914;-83
2023/02/02 11:26:19;;;;;;;;;;;6.00;95.80;;;;;;4977626;28;19970;-83
2023/02/02 11:28:47;;;;;;;;;;;6.00;95.70;;;;;;4982888;28;19942;-85
2023/02/02 11:31:28;;;;;;;;;;;6.00;95.40;;;;;;4987677;28;19910;-85
2023/02/02 11:34:06;;;;;;;;;;;6.00;95.70;;;;;;5001604;28;19917;-84
2023/02/02 11:36:31;;;;;;;;;;;6.00;95.60;;;;;;4995067;28;19938;-83
2023/02/02 11:39:18;;;;;;;;;;;5.90;95.80;;;;;;4993925;28;19914;-82
2023/02/02 11:41:44;;;;;;;;;;;5.70;96.30;;;;;;4993220;28;19969;-83
2023/02/02 11:44:15;;;;;;;;;;;5.60;97.00;;;;;;4992700;28;19917;-83
2023/02/02 11:46:41;;;;;;;;;;;5.70;96.70;;;;;;4976403;28;19922;-85
2023/02/02 11:49:13;;;;;;;;;;;5.80;96.60;;;;;;4990861;28;19920;-83
2023/02/02 11:51:41;;;;;;;;;;;5.80;96.20;;;;;;4985477;28;19914;-84
2023/02/02 11:54:14;;;;;;;;;;;5.80;96.60;;;;;;4974114;28;20008;-84
2023/02/02 11:56:40;;;;;;;;;;;5.90;96.00;;;;;;4990225;28;19910;-84
2023/02/02 11:59:25;;;;;;;;;;;6.00;96.50;;;;;;4984227;28;19917;-84
2023/02/02 12:02:09;;;;;;;;;;;6.10;96.00;;;;;;4965116;28;19998;-84
2023/02/02 12:04:34;;;;;;;;;;;6.20;95.40;;;;;;4999511;28;20293;-86
2023/02/02 12:07:00;;;;;;;;;;;6.30;95.20;;;;;;4980757;28;19910;-85
2023/02/02 12:09:26;;;;;;;;;;;6.40;95.00;;;;;;4982236;28;20426;-85
2023/02/02 12:11:55;;;;;;;;;;;6.20;96.00;;;;;;4980529;28;19979;-85
2023/02/02 12:14:39;;;;;;;;;;;6.10;96.10;;;;;;4981523;28;19963;-85
2023/02/02 12:17:07;;;;;;;;;;;6.00;96.30;;;;;;4966046;29;19911;-85
2023/02/02 12:19:50;;;;;;;;;;;5.90;96.40;;;;;;4964738;29;19935;-85
2023/02/02 12:22:25;;;;;;;;;;;5.80;96.80;;;;;;4954710;28;19921;-85
2023/02/02 12:24:50;;;;;;;;;;;5.70;96.70;;;;;;4980424;28;19921;-84
2023/02/02 12:27:35;;;;;;;;;;;5.60;97.10;;;;;;4980788;28;20286;-84
2023/02/02 12:30:30;;;;;;;;;;;5.50;98.00;;;;;;4982503;28;19918;-85
2023/02/02 12:32:58;;;;;;;;;;;5.60;98.40;;;;;;4911490;28;19918;-84
2023/02/02 12:35:24;;;;;;;;;;;5.70;97.50;;;;;;4962086;28;20018;-84
2023/02/02 12:37:59;;;;;;;;;;;5.60;97.80;;;;;;4981271;28;19953;-85
2023/02/02 12:40:40;;;;;;;;;;;5.60;97.80;;;;;;4982103;28;19911;-85
2023/02/02 12:43:22;;;;;;;;;;;5.60;98.00;;;;;;4965100;28;19953;-85
2023/02/02 12:45:47;;;;;;;;;;;5.60;98.10;;;;;;4981912;28;19922;-84
2023/02/02 12:48:13;;;;;;;;;;;5.60;98.70;;;;;;4981517;28;19914;-85
2023/02/02 12:50:47;;;;;;;;;;;5.60;98.10;;;;;;4982956;28;19918;-84
2023/02/02 12:53:14;;;;;;;;;;;5.70;98.20;;;;;;4973652;28;19914;-84
2023/02/02 12:55:50;;;;;;;;;;;5.60;98.40;;;;;;4971134;28;20358;-85
2023/02/02 12:58:16;;;;;;;;;;;5.60;98.70;;;;;;4994202;28;19910;-82
2023/02/02 13:01:04;;;;;;;;;;;5.60;98.20;;;;;;4992478;28;19910;-84
2023/02/02 13:03:33;;;;;;;;;;;5.50;98.80;;;;;;4976302;28;19914;-82
2023/02/02 13:06:10;;;;;;;;;;;5.50;98.80;;;;;;4982309;28;19999;-84
2023/02/02 13:09:08;;;;;;;;;;;5.50;99.20;;;;;;4965072;28;20280;-84
2023/02/02 13:11:44;;;;;;;;;;;5.40;99.60;;;;;;4961701;28;19910;-84
2023/02/02 13:14:20;;;;;;;;;;;5.30;99.80;;;;;;4964782;28;19925;-83
2023/02/02 13:16:47;;;;;;;;;;;5.20;99.90;;;;;;4983913;28;19974;-85
2023/02/02 13:19:22;;;;;;;;;;;5.10;99.90;;;;;;4969766;28;19970;-84
2023/02/02 13:21:48;;;;;;;;;;;5.10;99.90;;;;;;4993329;28;20326;-85
2023/02/02 13:24:19;;;;;;;;;;;5.00;99.90;;;;;;4988714;28;19942;-85
2023/02/02 13:26:46;;;;;;;;;;;5.00;99.90;;;;;;4967178;28;20013;-84
2023/02/02 13:29:23;;;;;;;;;;;5.00;99.90;;;;;;4965845;28;19982;-85
2023/02/02 13:32:09;;;;;;;;;;;4.90;99.90;;;;;;4983916;28;19937;-84
2023/02/02 13:34:44;;;;;;;;;;;4.90;99.90;;;;;;4964956;28;20002;-84
2023/02/02 13:37:09;;;;;;;;;;;4.90;99.90;;;;;;4967243;28;19917;-84
2023/02/02 13:39:43;;;;;;;;;;;4.80;99.90;;;;;;4991418;28;20372;-84
2023/02/02 13:42:16;;;;;;;;;;;4.70;99.90;;;;;;4990527;28;19997;-84
2023/02/02 13:44:46;;;;;;;;;;;4.80;99.90;;;;;;4987267;28;19918;-86
2023/02/02 13:47:18;;;;;;;;;;;4.70;99.90;;;;;;4987375;28;19918;-84
2023/02/02 13:49:46;;;;;;;;;;;4.70;99.90;;;;;;4967010;28;19918;-84
2023/02/02 13:52:27;;;;;;;;;;;4.70;99.90;;;;;;4995403;28;19909;-84
2023/02/02 13:55:11;;;;;;;;;;;4.70;99.90;;;;;;4984881;28;19917;-85
2023/02/02 13:57:36;;;;;;;;;;;4.60;99.90;;;;;;5019533;28;19949;-85
2023/02/02 14:00:11;;;;;;;;;;;4.70;99.90;;;;;;5019160;28;19902;-85
2023/02/02 14:02:47;;;;;;;;;;;4.60;99.90;;;;;;5007027;28;19910;-85
2023/02/02 14:05:22;;;;;;;;;;;4.60;99.90;;;;;;5001147;28;19917;-83
2023/02/02 14:07:48;;;;;;;;;;;4.60;99.90;;;;;;5001920;28;19926;-84
2023/02/02 14:10:24;;;;;;;;;;;4.60;99.90;;;;;;5003083;28;19914;-84
2023/02/02 14:12:50;;;;;;;;;;;4.60;99.90;;;;;;5004160;28;20322;-85
2023/02/02 14:15:16;;;;;;;;;;;4.60;99.90;;;;;;4998022;28;19894;-85
2023/02/02 14:17:41;;;;;;;;;;;4.60;99.90;;;;;;4984081;28;19950;-85
2023/02/02 14:20:33;;;;;;;;;;;4.50;99.90;;;;;;4985806;28;19981;-84
2023/02/02 14:22:58;;;;;;;;;;;4.50;99.90;;;;;;4980397;28;19926;-84
2023/02/02 14:25:54;;;;;;;;;;;4.50;99.90;;;;;;4968430;28;19914;-84
2023/02/02 14:28:39;;;;;;;;;;;4.50;99.90;;;;;;4985134;28;20321;-85
2023/02/02 14:31:28;;;;;;;;;;;4.50;99.90;;;;;;5003261;28;19917;-85
2023/02/02 14:34:12;;;;;;;;;;;4.50;99.90;;;;;;4983277;28;19910;-87
2023/02/02 14:36:38;;;;;;;;;;;4.50;99.90;;;;;;4985477;28;19918;-85
2023/02/02 14:39:09;;;;;;;;;;;4.60;99.90;;;;;;4984407;28;19942;-86
2023/02/02 14:44:27;;;;;;;;;;;4.50;99.90;;;;;;4999319;28;19945;-85
2023/02/02 14:46:52;;;;;;;;;;;4.50;99.90;;;;;;4985656;28;19964;-83
2023/02/02 14:49:19;;;;;;;;;;;4.50;99.90;;;;;;4994352;28;19910;-85
2023/02/02 14:51:50;;;;;;;;;;;4.50;99.90;;;;;;4984695;28;19926;-85
2023/02/02 14:54:19;;;;;;;;;;;4.50;99.90;;;;;;4999411;28;19961;-83
2023/02/02 14:56:48;;;;;;;;;;;4.50;99.90;;;;;;4963871;28;19984;-83
2023/02/02 14:59:35;;;;;;;;;;;4.50;99.90;;;;;;4964717;28;20260;-85
2023/02/02 15:02:09;;;;;;;;;;;4.40;99.90;;;;;;4980962;28;19937;-83
2023/02/02 15:04:34;;;;;;;;;;;4.40;99.90;;;;;;4986204;28;19914;-83
2023/02/02 15:07:20;;;;;;;;;;;4.40;99.90;;;;;;4967635;28;20024;-83
2023/02/02 15:09:47;;;;;;;;;;;4.50;99.90;;;;;;4991075;28;19910;-84
2023/02/02 15:12:13;;;;;;;;;;;4.40;99.90;;;;;;4975924;28;19920;-83
2023/02/02 15:14:41;;;;;;;;;;;4.40;99.90;;;;;;4990716;28;19934;-84
2023/02/02 15:17:19;;;;;;;;;;;4.50;99.90;;;;;;4973872;28;19952;-85
2023/02/02 15:19:47;;;;;;;;;;;4.50;99.90;;;;;;4992643;28;19968;-83
2023/02/02 15:22:22;;;;;;;;;;;4.50;99.90;;;;;;4998477;28;19981;-84
2023/02/02 15:24:48;;;;;;;;;;;4.50;99.90;;;;;;5006620;28;19910;-84
2023/02/02 15:27:18;;;;;;;;;;;4.50;99.90;;;;;;4971900;28;19956;-84
2023/02/02 15:29:45;;;;;;;;;;;4.50;99.90;;;;;;4982462;28;19910;-84
2023/02/02 15:32:14;;;;;;;;;;;4.50;99.90;;;;;;4981979;28;19910;-84
2023/02/02 15:34:44;;;;;;;;;;;4.50;99.90;;;;;;4963459;28;19910;-84
2023/02/02 15:37:21;;;;;;;;;;;4.50;99.90;;;;;;4981623;28;19918;-84